Time;durP1;ratioP1;P1;durP2;ratioP2;P2;SDS_P1;SDS_P2;PMS_P1;PMS_P2;Temp;Humidity;BMP_temperature;BMP_pressure;BME280_temperature;BME280_humidity;BME280_pressure;Samples;Min_cycle;Max_cycle;Signal;HPM_P1;HPM_P2
2022/07/25 13:18:08;;;;;;;2.08;1.50;;;;;;;;;;5060840;28;20141;-82
2022/07/25 13:20:36;;;;;;;3.33;1.70;;;;;;;;;;5054079;28;20047;-83
2022/07/25 13:23:02;;;;;;;2.13;1.45;;;;;;;;;;5053468;28;20030;-83
2022/07/25 13:25:28;;;;;;;5.78;1.50;;;;;;;;;;5053469;28;20609;-83
2022/07/25 13:27:54;;;;;;;2.58;1.65;;;;;;;;;;5035217;28;20044;-87
2022/07/25 13:30:20;;;;;;;2.58;1.45;;;;;;;;;;5033793;28;20395;-77
2022/07/25 13:32:46;;;;;;;2.50;1.30;;;;;;;;;;5032754;28;20032;-79
2022/07/25 13:35:12;;;;;;;3.05;1.55;;;;;;;;;;5034926;28;20041;-77
2022/07/25 13:37:38;;;;;;;2.75;1.50;;;;;;;;;;5034289;28;20035;-74
2022/07/25 13:40:04;;;;;;;2.08;1.40;;;;;;;;;;5035161;28;20045;-78
2022/07/25 13:42:30;;;;;;;2.75;1.40;;;;;;;;;;5036412;28;20036;-78
2022/07/25 13:44:56;;;;;;;2.53;1.40;;;;;;;;;;5053989;28;20083;-75
2022/07/25 13:47:22;;;;;;;4.93;1.40;;;;;;;;;;5035927;28;20434;-80
2022/07/25 13:49:48;;;;;;;2.20;1.40;;;;;;;;;;5053226;28;20442;-77
2022/07/25 13:52:14;;;;;;;3.42;1.70;;;;;;;;;;5053032;28;20090;-82
2022/07/25 13:54:40;;;;;;;4.10;1.70;;;;;;;;;;5053401;28;20068;-76
2022/07/25 13:57:08;;;;;;;6.55;1.77;;;;;;;;;;5053936;28;20065;-82
2022/07/25 13:59:34;;;;;;;3.20;1.42;;;;;;;;;;5035586;28;20033;-74
2022/07/25 14:02:00;;;;;;;2.58;1.30;;;;;;;;;;5053187;28;20356;-76
2022/07/25 14:04:26;;;;;;;5.18;1.60;;;;;;;;;;5034759;28;20139;-75
2022/07/25 14:06:52;;;;;;;3.25;1.50;;;;;;;;;;5053036;28;20033;-76
2022/07/25 14:09:19;;;;;;;4.32;1.70;;;;;;;;;;5034287;28;20063;-76
2022/07/25 14:11:45;;;;;;;4.47;1.52;;;;;;;;;;5033719;28;20029;-76
2022/07/25 14:14:11;;;;;;;2.35;1.60;;;;;;;;;;5051205;28;20071;-76
2022/07/25 14:16:37;;;;;;;3.22;1.50;;;;;;;;;;5051948;28;20052;-76
2022/07/25 14:19:03;;;;;;;2.03;1.30;;;;;;;;;;5070782;28;20126;-75
2022/07/25 14:21:29;;;;;;;2.60;1.35;;;;;;;;;;5052258;28;20029;-77
2022/07/25 14:23:55;;;;;;;2.55;1.42;;;;;;;;;;5052643;28;20106;-76
2022/07/25 14:26:21;;;;;;;3.50;1.85;;;;;;;;;;5072543;28;20051;-82
2022/07/25 14:28:47;;;;;;;3.13;1.45;;;;;;;;;;5054615;28;20032;-76
2022/07/25 14:31:13;;;;;;;4.15;1.42;;;;;;;;;;5072736;28;20032;-77
2022/07/25 14:33:40;;;;;;;2.88;1.90;;;;;;;;;;5071491;28;20039;-78
2022/07/25 14:36:07;;;;;;;5.60;1.40;;;;;;;;;;5072012;28;20434;-79
2022/07/25 14:38:33;;;;;;;3.58;1.60;;;;;;;;;;5070339;28;20079;-84
2022/07/25 14:40:59;;;;;;;2.90;1.50;;;;;;;;;;5052661;28;20498;-76
2022/07/25 14:43:25;;;;;;;5.45;1.73;;;;;;;;;;5053153;28;20041;-76
2022/07/25 14:45:51;;;;;;;1.88;1.60;;;;;;;;;;5072249;28;20399;-77
2022/07/25 14:48:17;;;;;;;4.28;1.48;;;;;;;;;;5052837;28;20037;-77
2022/07/25 14:50:43;;;;;;;1.85;1.40;;;;;;;;;;5069205;28;20113;-79
2022/07/25 14:53:09;;;;;;;3.05;1.70;;;;;;;;;;5070900;28;20079;-78
2022/07/25 14:55:36;;;;;;;4.57;1.67;;;;;;;;;;5053780;28;20029;-83
2022/07/25 14:58:02;;;;;;;4.30;1.80;;;;;;;;;;5053037;28;20135;-79
2022/07/25 15:00:28;;;;;;;4.22;1.60;;;;;;;;;;5053492;28;20037;-76
2022/07/25 15:02:55;;;;;;;3.78;1.50;;;;;;;;;;5053464;28;20036;-81
2022/07/25 15:05:21;;;;;;;4.35;1.70;;;;;;;;;;5071111;28;20025;-81
2022/07/25 15:07:47;;;;;;;2.38;1.58;;;;;;;;;;5075422;28;20036;-79
2022/07/25 15:10:13;;;;;;;3.53;1.63;;;;;;;;;;5058982;28;20032;-81
2022/07/25 15:12:39;;;;;;;3.28;1.80;;;;;;;;;;5056794;28;20043;-81
2022/07/25 15:15:06;;;;;;;4.10;1.55;;;;;;;;;;5056397;28;20040;-80
2022/07/25 15:17:32;;;;;;;5.53;1.40;;;;;;;;;;5058154;28;20045;-81
2022/07/25 15:19:58;;;;;;;3.50;1.48;;;;;;;;;;5041191;28;20033;-89
2022/07/25 15:22:24;;;;;;;3.95;1.27;;;;;;;;;;5057472;28;20040;-79
2022/07/25 15:24:50;;;;;;;3.05;1.30;;;;;;;;;;5058786;28;20049;-80
2022/07/25 15:27:16;;;;;;;2.97;1.38;;;;;;;;;;5056295;28;20040;-89
2022/07/25 15:29:42;;;;;;;2.78;1.38;;;;;;;;;;5059550;28;20483;-81
2022/07/25 15:32:08;;;;;;;3.78;1.30;;;;;;;;;;5056844;28;20037;-80
2022/07/25 15:34:34;;;;;;;3.78;1.50;;;;;;;;;;5057410;28;20021;-77
2022/07/25 15:37:00;;;;;;;4.70;1.52;;;;;;;;;;5055791;28;20033;-79
2022/07/25 15:39:26;;;;;;;5.68;1.83;;;;;;;;;;5039619;28;20044;-77
2022/07/25 15:41:52;;;;;;;1.52;1.40;;;;;;;;;;5040476;28;20055;-76
2022/07/25 15:44:19;;;;;;;4.15;1.45;;;;;;;;;;5042163;28;20054;-76
2022/07/25 15:46:45;;;;;;;2.78;1.42;;;;;;;;;;5058640;28;20088;-76
2022/07/25 15:49:11;;;;;;;4.25;1.73;;;;;;;;;;5061442;28;20482;-77
2022/07/25 15:51:37;;;;;;;4.47;1.50;;;;;;;;;;5055267;28;20044;-77
2022/07/25 15:54:03;;;;;;;2.40;1.40;;;;;;;;;;5060435;28;20410;-77
2022/07/25 15:56:29;;;;;;;3.33;1.92;;;;;;;;;;5056726;28;20037;-78
2022/07/25 15:58:55;;;;;;;4.68;1.80;;;;;;;;;;5055880;28;20040;-77
2022/07/25 16:01:21;;;;;;;4.25;1.67;;;;;;;;;;5055752;28;20029;-77
2022/07/25 16:03:47;;;;;;;4.25;1.70;;;;;;;;;;5059007;28;20052;-76
2022/07/25 16:06:14;;;;;;;4.88;1.80;;;;;;;;;;5057473;28;20037;-79
2022/07/25 16:08:40;;;;;;;3.95;1.45;;;;;;;;;;5077828;28;20037;-77
2022/07/25 16:11:06;;;;;;;5.13;1.70;;;;;;;;;;5060633;28;20040;-76
2022/07/25 16:13:35;;;;;;;6.85;1.90;;;;;;;;;;5060233;28;20465;-75
2022/07/25 16:16:01;;;;;;;3.97;1.63;;;;;;;;;;5061009;28;20551;-77
2022/07/25 16:18:28;;;;;;;1.88;1.50;;;;;;;;;;5043730;28;20151;-77
2022/07/25 16:20:54;;;;;;;4.07;1.50;;;;;;;;;;5061909;28;20111;-76
2022/07/25 16:23:22;;;;;;;3.60;1.58;;;;;;;;;;5059611;28;20135;-78
2022/07/25 16:25:48;;;;;;;3.17;1.50;;;;;;;;;;5058889;28;20116;-77
2022/07/25 16:28:14;;;;;;;3.63;1.25;;;;;;;;;;5061281;28;20123;-76
2022/07/25 16:30:39;;;;;;;4.85;1.58;;;;;;;;;;5059503;28;20037;-79
2022/07/25 16:33:05;;;;;;;2.42;1.30;;;;;;;;;;5059132;28;20485;-77
2022/07/25 16:35:31;;;;;;;3.80;1.70;;;;;;;;;;5058301;28;20468;-76
2022/07/25 16:37:57;;;;;;;4.63;1.70;;;;;;;;;;5062095;28;20131;-79
2022/07/25 16:40:23;;;;;;;3.28;1.55;;;;;;;;;;5059786;28;20076;-77
2022/07/25 16:42:54;;;;;;;4.03;1.60;;;;;;;;;;5062524;28;20116;-76
2022/07/25 16:45:20;;;;;;;6.00;1.50;;;;;;;;;;5061208;28;20432;-78
2022/07/25 16:47:46;;;;;;;3.95;1.40;;;;;;;;;;5061466;28;20033;-77
2022/07/25 16:50:12;;;;;;;3.60;1.63;;;;;;;;;;5061039;28;20115;-76
2022/07/25 16:52:38;;;;;;;4.15;1.70;;;;;;;;;;5062415;28;20131;-75
2022/07/25 16:55:04;;;;;;;2.90;1.30;;;;;;;;;;5058130;28;20548;-77
2022/07/25 16:57:31;;;;;;;3.03;1.60;;;;;;;;;;5060524;28;20037;-78
2022/07/25 16:59:57;;;;;;;3.28;1.60;;;;;;;;;;5061661;28;20045;-76
2022/07/25 17:02:23;;;;;;;3.83;1.38;;;;;;;;;;5061423;28;20025;-85
2022/07/25 17:04:49;;;;;;;3.05;1.25;;;;;;;;;;5058038;28;20059;-80
2022/07/25 17:07:15;;;;;;;2.95;1.55;;;;;;;;;;5060893;28;20450;-82
2022/07/25 17:09:41;;;;;;;3.45;1.40;;;;;;;;;;5058040;28;20094;-79
2022/07/25 17:12:07;;;;;;;5.32;1.52;;;;;;;;;;5060709;28;20033;-84
2022/07/25 17:14:33;;;;;;;2.33;1.42;;;;;;;;;;5060254;28;20037;-85
2022/07/25 17:16:59;;;;;;;3.67;1.55;;;;;;;;;;5058383;28;20462;-81
2022/07/25 17:19:25;;;;;;;5.15;1.42;;;;;;;;;;5060862;28;20033;-88
2022/07/25 17:21:51;;;;;;;5.13;1.38;;;;;;;;;;5059205;28;20558;-80
2022/07/25 17:24:17;;;;;;;2.70;1.42;;;;;;;;;;5060247;28;20503;-81
2022/07/25 17:26:43;;;;;;;4.75;1.20;;;;;;;;;;5060704;28;20043;-82
2022/07/25 17:29:09;;;;;;;3.03;1.27;;;;;;;;;;5057460;28;20044;-77
2022/07/25 17:31:35;;;;;;;2.80;1.33;;;;;;;;;;5060337;28;20044;-83
2022/07/25 17:34:01;;;;;;;3.20;1.25;;;;;;;;;;5058764;28;20037;-80
2022/07/25 17:36:27;;;;;;;2.90;1.13;;;;;;;;;;5061203;28;20067;-78
2022/07/25 17:38:53;;;;;;;2.72;1.30;;;;;;;;;;5060709;28;20075;-79
2022/07/25 17:41:19;;;;;;;1.95;1.10;;;;;;;;;;5058560;28;20037;-77
2022/07/25 17:43:45;;;;;;;2.58;1.30;;;;;;;;;;5059853;28;20086;-83
2022/07/25 17:46:12;;;;;;;2.20;1.20;;;;;;;;;;5060392;28;20402;-77
2022/07/25 17:48:39;;;;;;;2.75;1.23;;;;;;;;;;5059201;28;20037;-81
2022/07/25 17:51:05;;;;;;;2.22;1.33;;;;;;;;;;5062071;28;20071;-81
2022/07/25 17:53:31;;;;;;;2.85;1.00;;;;;;;;;;5059722;28;20110;-77
2022/07/25 17:55:58;;;;;;;1.85;1.00;;;;;;;;;;5058788;28;20037;-75
2022/07/25 17:58:24;;;;;;;2.35;1.00;;;;;;;;;;5059242;28;20032;-81
2022/07/25 18:00:50;;;;;;;3.17;1.00;;;;;;;;;;5056019;28;20116;-77
2022/07/25 18:03:16;;;;;;;3.28;0.93;;;;;;;;;;5059127;28;20128;-78
2022/07/25 18:05:42;;;;;;;4.25;1.00;;;;;;;;;;5061279;28;20124;-79
2022/07/25 18:08:09;;;;;;;2.75;1.00;;;;;;;;;;5060630;28;20471;-76
2022/07/25 18:10:35;;;;;;;2.35;0.80;;;;;;;;;;5058070;28;20036;-77
2022/07/25 18:13:02;;;;;;;2.65;1.00;;;;;;;;;;5058297;28;20041;-76
2022/07/25 18:15:28;;;;;;;3.05;1.00;;;;;;;;;;5059793;28;20024;-77
2022/07/25 18:17:54;;;;;;;1.98;0.90;;;;;;;;;;5058178;28;20067;-77
2022/07/25 18:20:20;;;;;;;4.47;1.10;;;;;;;;;;5059731;28;20187;-78
2022/07/25 18:22:46;;;;;;;2.47;0.90;;;;;;;;;;5060260;28;20037;-76
2022/07/25 18:25:12;;;;;;;1.38;0.90;;;;;;;;;;5057546;28;20036;-76
2022/07/25 18:27:46;;;;;;;3.17;1.13;;;;;;;;;;5066764;28;20036;-76
2022/07/25 18:30:13;;;;;;;2.63;0.98;;;;;;;;;;5042377;28;20041;-75
2022/07/25 18:32:39;;;;;;;2.25;0.82;;;;;;;;;;5062155;28;20505;-83
2022/07/25 18:35:06;;;;;;;1.55;0.85;;;;;;;;;;5060901;28;20055;-76
2022/07/25 18:37:32;;;;;;;2.95;0.90;;;;;;;;;;5059082;28;20036;-79
2022/07/25 18:39:58;;;;;;;3.90;0.77;;;;;;;;;;5055675;28;20036;-79
2022/07/25 18:42:27;;;;;;;4.93;1.20;;;;;;;;;;5066479;28;20394;-76
2022/07/25 18:44:53;;;;;;;;;;;;;;;;;;5065474;28;20127;-80
2022/07/25 18:47:23;;;;;;;3.38;0.90;;;;;;;;;;5073674;28;19905;-81
2022/07/25 18:49:49;;;;;;;3.35;0.80;;;;;;;;;;5061271;28;20090;-82
2022/07/25 18:52:15;;;;;;;2.45;0.65;;;;;;;;;;5056208;28;20487;-81
2022/07/25 18:54:41;;;;;;;1.85;0.80;;;;;;;;;;5057061;28;20394;-80
2022/07/25 18:57:07;;;;;;;2.15;0.70;;;;;;;;;;5058671;28;20033;-80
2022/07/25 18:59:33;;;;;;;2.28;0.60;;;;;;;;;;5055468;28;20048;-81
2022/07/25 19:01:59;;;;;;;1.50;0.60;;;;;;;;;;5059039;28;20075;-81
2022/07/25 19:04:25;;;;;;;3.85;0.68;;;;;;;;;;5056840;28;20041;-81
2022/07/25 19:06:51;;;;;;;2.28;0.68;;;;;;;;;;5058692;28;20032;-81
2022/07/25 19:09:17;;;;;;;1.42;0.60;;;;;;;;;;5055907;28;20043;-82
2022/07/25 19:11:43;;;;;;;3.72;0.60;;;;;;;;;;5061805;28;20658;-82
2022/07/25 19:14:10;;;;;;;2.58;0.70;;;;;;;;;;5059239;28;20033;-83
2022/07/25 19:16:36;;;;;;;1.13;0.60;;;;;;;;;;5060203;28;20033;-84
2022/07/25 19:19:02;;;;;;;2.58;0.52;;;;;;;;;;5059809;28;20057;-81
2022/07/25 19:21:28;;;;;;;1.90;0.60;;;;;;;;;;5057323;28;20498;-82
2022/07/25 19:23:54;;;;;;;2.95;0.73;;;;;;;;;;5044357;28;20040;-82
2022/07/25 19:26:21;;;;;;;1.63;0.68;;;;;;;;;;5060315;28;20112;-82
2022/07/25 19:28:48;;;;;;;3.33;0.90;;;;;;;;;;5059969;28;20062;-81
2022/07/25 19:31:14;;;;;;;2.95;0.60;;;;;;;;;;5058619;28;20028;-80
2022/07/25 19:33:40;;;;;;;0.80;0.50;;;;;;;;;;5060526;28;20076;-81
2022/07/25 19:36:06;;;;;;;1.83;0.60;;;;;;;;;;5059065;28;20045;-81
2022/07/25 19:38:32;;;;;;;1.70;0.63;;;;;;;;;;5043215;28;20025;-81
2022/07/25 19:40:59;;;;;;;1.58;0.50;;;;;;;;;;5062101;28;20045;-81
2022/07/25 19:43:25;;;;;;;1.10;0.50;;;;;;;;;;5046324;28;20094;-80
2022/07/25 19:45:51;;;;;;;1.85;0.47;;;;;;;;;;5062470;28;20665;-81
2022/07/25 19:48:17;;;;;;;2.53;0.77;;;;;;;;;;5064214;28;20103;-80
2022/07/25 19:50:44;;;;;;;2.97;0.52;;;;;;;;;;5061928;28;20374;-81
2022/07/25 19:53:10;;;;;;;2.35;0.90;;;;;;;;;;5062604;28;20072;-81
2022/07/25 19:55:36;;;;;;;1.90;0.63;;;;;;;;;;5059276;28;20052;-81
2022/07/25 19:58:02;;;;;;;2.67;0.60;;;;;;;;;;5059271;28;20071;-81
2022/07/25 20:00:28;;;;;;;2.58;0.70;;;;;;;;;;5062556;28;20033;-82
2022/07/25 20:02:54;;;;;;;2.40;0.70;;;;;;;;;;5062129;28;20467;-81
2022/07/25 20:05:20;;;;;;;3.80;0.70;;;;;;;;;;5061339;28;20037;-82
2022/07/25 20:07:49;;;;;;;5.43;0.82;;;;;;;;;;5060951;28;20020;-81
2022/07/25 20:10:15;;;;;;;2.28;0.50;;;;;;;;;;5061330;28;20056;-80
2022/07/25 20:12:41;;;;;;;4.63;0.80;;;;;;;;;;5061609;28;20199;-82
2022/07/25 20:15:07;;;;;;;2.08;0.55;;;;;;;;;;5061200;28;20094;-82
2022/07/25 20:17:33;;;;;;;2.70;0.60;;;;;;;;;;5056031;28;20057;-81
2022/07/25 20:19:59;;;;;;;2.05;0.80;;;;;;;;;;5024448;28;20117;-82
2022/07/25 20:22:25;;;;;;;1.35;0.50;;;;;;;;;;5045741;28;20083;-80
2022/07/25 20:24:51;;;;;;;1.10;0.55;;;;;;;;;;5040162;28;20051;-81
2022/07/25 20:27:17;;;;;;;7.65;0.60;;;;;;;;;;5048406;28;20038;-82
2022/07/25 20:29:44;;;;;;;1.10;0.60;;;;;;;;;;5023524;28;20044;-81
2022/07/25 20:32:10;;;;;;;1.85;0.60;;;;;;;;;;5042532;28;20033;-82
2022/07/25 20:34:36;;;;;;;1.88;0.68;;;;;;;;;;5040167;28;20550;-82
2022/07/25 20:37:02;;;;;;;1.35;0.43;;;;;;;;;;5026440;28;20033;-80
2022/07/25 20:39:28;;;;;;;1.08;0.50;;;;;;;;;;5056450;28;20044;-83
2022/07/25 20:41:54;;;;;;;2.88;0.50;;;;;;;;;;5043290;28;20798;-82
2022/07/25 20:44:20;;;;;;;2.90;0.73;;;;;;;;;;5042124;28;20403;-81
2022/07/25 20:46:46;;;;;;;2.33;0.60;;;;;;;;;;5041895;28;20037;-82
2022/07/25 20:49:12;;;;;;;2.47;0.70;;;;;;;;;;5040908;28;20184;-82
2022/07/25 20:51:39;;;;;;;1.10;0.50;;;;;;;;;;5021505;28;20025;-83
2022/07/25 20:54:11;;;;;;;3.42;0.80;;;;;;;;;;5042555;28;20037;-80
2022/07/25 20:56:37;;;;;;;3.22;0.50;;;;;;;;;;5037797;28;20408;-82
2022/07/25 20:59:03;;;;;;;2.17;0.43;;;;;;;;;;5021592;28;20158;-81
2022/07/25 21:01:30;;;;;;;2.40;0.68;;;;;;;;;;5021068;28;20124;-81
2022/07/25 21:03:56;;;;;;;1.65;0.45;;;;;;;;;;5040140;28;20049;-83
2022/07/25 21:06:22;;;;;;;2.38;0.47;;;;;;;;;;5038123;28;20041;-81
2022/07/25 21:08:48;;;;;;;2.50;0.65;;;;;;;;;;5040762;28;20036;-81
2022/07/25 21:11:14;;;;;;;1.70;0.60;;;;;;;;;;5023349;28;20037;-82
2022/07/25 21:13:40;;;;;;;2.92;0.52;;;;;;;;;;5040342;28;20034;-83
2022/07/25 21:16:06;;;;;;;4.25;0.77;;;;;;;;;;5039393;28;20033;-83
2022/07/25 21:18:32;;;;;;;1.83;0.45;;;;;;;;;;5054671;28;20454;-81
2022/07/25 21:20:58;;;;;;;1.95;0.60;;;;;;;;;;5062448;28;20038;-81
2022/07/25 21:23:25;;;;;;;1.65;0.60;;;;;;;;;;5060191;28;20044;-81
2022/07/25 21:25:51;;;;;;;3.30;0.65;;;;;;;;;;5062211;28;20037;-81
2022/07/25 21:28:17;;;;;;;2.38;0.50;;;;;;;;;;5060607;28;20055;-81
2022/07/25 21:30:43;;;;;;;1.83;0.60;;;;;;;;;;5058874;28;20044;-81
2022/07/25 21:33:09;;;;;;;0.82;0.40;;;;;;;;;;5060648;28;20036;-82
2022/07/25 21:35:35;;;;;;;1.40;0.50;;;;;;;;;;5056093;28;20479;-80
2022/07/25 21:38:04;;;;;;;0.95;0.50;;;;;;;;;;5062344;28;20037;-82
2022/07/25 21:40:30;;;;;;;1.60;0.55;;;;;;;;;;5059134;28;20079;-80
2022/07/25 21:42:56;;;;;;;2.00;0.63;;;;;;;;;;5060285;28;20040;-81
2022/07/25 21:45:22;;;;;;;2.13;0.60;;;;;;;;;;5057967;28;20383;-81
2022/07/25 21:47:48;;;;;;;0.43;0.38;;;;;;;;;;5061168;28;20474;-82
2022/07/25 21:52:59;;;;;;;1.05;0.50;;;;;;;;;;5057332;28;20128;-82
2022/07/25 21:55:25;;;;;;;1.70;0.50;;;;;;;;;;5056322;28;20135;-82
2022/07/25 21:57:51;;;;;;;1.55;0.40;;;;;;;;;;5055231;28;20037;-81
2022/07/25 22:00:17;;;;;;;1.83;0.50;;;;;;;;;;5058420;28;20083;-81
2022/07/25 22:02:44;;;;;;;3.85;0.60;;;;;;;;;;5054364;28;20032;-81
2022/07/25 22:05:11;;;;;;;1.70;0.40;;;;;;;;;;5059507;28;20060;-80
2022/07/25 22:07:37;;;;;;;1.85;0.50;;;;;;;;;;5041261;28;20037;-81
2022/07/25 22:10:04;;;;;;;1.13;0.47;;;;;;;;;;5058222;28;20083;-81
2022/07/25 22:12:30;;;;;;;1.30;0.50;;;;;;;;;;5057764;28;20060;-81
2022/07/25 22:14:56;;;;;;;1.40;0.60;;;;;;;;;;5055698;28;20064;-81
2022/07/25 22:17:22;;;;;;;0.65;0.50;;;;;;;;;;5058369;28;20053;-81
2022/07/25 22:19:48;;;;;;;1.58;0.60;;;;;;;;;;5060718;28;20087;-81
2022/07/25 22:22:14;;;;;;;2.35;0.63;;;;;;;;;;5062723;28;20040;-80
2022/07/25 22:24:40;;;;;;;0.90;0.50;;;;;;;;;;5058794;28;20123;-81
2022/07/25 22:27:06;;;;;;;1.60;0.63;;;;;;;;;;5052515;28;20583;-81
2022/07/25 22:29:32;;;;;;;1.70;0.60;;;;;;;;;;5063964;28;20032;-81
2022/07/25 22:31:59;;;;;;;1.20;0.50;;;;;;;;;;5072515;28;20037;-80
2022/07/25 22:34:25;;;;;;;2.33;0.63;;;;;;;;;;5054499;28;20054;-81
2022/07/25 22:36:51;;;;;;;1.88;0.65;;;;;;;;;;5046587;28;20082;-81
2022/07/25 22:39:17;;;;;;;1.42;0.60;;;;;;;;;;5057725;28;20037;-81
2022/07/25 22:41:43;;;;;;;1.25;0.55;;;;;;;;;;5059937;28;20033;-80
2022/07/25 22:44:09;;;;;;;1.60;0.52;;;;;;;;;;5057520;28;20090;-82
2022/07/25 22:46:36;;;;;;;1.92;0.63;;;;;;;;;;5059124;28;20104;-82
2022/07/25 22:49:02;;;;;;;3.08;0.75;;;;;;;;;;5058631;28;20055;-81
2022/07/25 22:51:28;;;;;;;0.95;0.50;;;;;;;;;;5054361;28;20032;-81
2022/07/25 22:53:55;;;;;;;1.35;0.60;;;;;;;;;;5053478;28;20391;-80
2022/07/25 22:56:21;;;;;;;2.47;0.70;;;;;;;;;;5060879;28;20539;-82
2022/07/25 22:58:47;;;;;;;2.50;0.45;;;;;;;;;;5052837;28;20072;-83
2022/07/25 23:01:13;;;;;;;2.05;0.63;;;;;;;;;;5060804;28;20051;-82
2022/07/25 23:03:39;;;;;;;2.92;0.70;;;;;;;;;;5057684;28;20388;-81
2022/07/25 23:06:05;;;;;;;1.58;0.60;;;;;;;;;;5058764;28;20048;-81
2022/07/25 23:08:31;;;;;;;1.80;0.80;;;;;;;;;;5056021;28;20032;-81
2022/07/25 23:10:57;;;;;;;0.75;0.50;;;;;;;;;;5059460;28;20041;-81
2022/07/25 23:13:23;;;;;;;2.55;0.70;;;;;;;;;;5060180;28;20143;-83
2022/07/25 23:15:49;;;;;;;2.67;0.88;;;;;;;;;;5056249;28;20052;-82
2022/07/25 23:18:15;;;;;;;1.85;0.60;;;;;;;;;;5052962;28;20060;-82
2022/07/25 23:20:41;;;;;;;3.42;0.95;;;;;;;;;;5048518;28;20045;-81
2022/07/25 23:23:07;;;;;;;3.40;0.90;;;;;;;;;;5047307;28;20124;-81
2022/07/25 23:25:33;;;;;;;2.15;0.80;;;;;;;;;;5046735;28;20060;-81
2022/07/25 23:27:59;;;;;;;1.13;0.55;;;;;;;;;;5048977;28;20114;-80
2022/07/25 23:30:25;;;;;;;2.03;0.70;;;;;;;;;;5047831;28;20591;-82
2022/07/25 23:32:51;;;;;;;1.05;0.70;;;;;;;;;;5047336;28;20041;-80
2022/07/25 23:35:17;;;;;;;2.08;0.90;;;;;;;;;;5046374;28;20395;-82
2022/07/25 23:37:43;;;;;;;2.67;0.55;;;;;;;;;;5047108;28;20033;-81
2022/07/25 23:40:09;;;;;;;2.30;0.70;;;;;;;;;;5048818;28;20087;-81
2022/07/25 23:42:35;;;;;;;1.13;0.50;;;;;;;;;;5049200;28;20064;-81
2022/07/25 23:45:01;;;;;;;3.13;0.80;;;;;;;;;;5047168;28;20084;-81
2022/07/25 23:47:27;;;;;;;1.95;0.60;;;;;;;;;;5048618;28;20112;-81
2022/07/25 23:49:53;;;;;;;4.85;1.17;;;;;;;;;;5047119;28;20090;-80
2022/07/25 23:52:19;;;;;;;2.08;0.63;;;;;;;;;;5046799;28;20040;-81
2022/07/25 23:54:45;;;;;;;4.13;0.77;;;;;;;;;;5046642;28;20045;-81
2022/07/25 23:57:11;;;;;;;2.83;0.82;;;;;;;;;;5048950;28;20029;-84
2022/07/25 23:59:37;;;;;;;1.90;0.70;;;;;;;;;;5047008;28;20475;-82
